Terminal Aerodrome Forecast
Issued by NWS

Home | Current Version | Previous Version | Text Only | Print | Product List | Glossary On
Versions: 1 2 3 4 5 6 7 8 9 10 11 12 13 14 15 16 17
000
FTUS43 KLSX 202300
TAFCPS
TAF
KCPS 202322Z 2100/2124 24008KT P6SM SCT040 BKN200
     FM210300 24006KT P6SM VCTS SCT040CB BKN070
     FM210600 30008KT P6SM SCT040
     FM211500 32012G18KT P6SM FEW040
     FM212300 35007KT P6SM SCT250=

USA.gov is the U.S. government's official web portal to all federal, state and local government web resources and services.